sensor_id;sensor_type;location;lat;lon;timestamp;P1;durP1;ratioP1;P2;durP2;ratioP2
70433;SDS011;57876;47.792;12.960;2022-12-07T00:01:23;5.40;;;1.80;;
70433;SDS011;57876;47.792;12.960;2022-12-07T00:03:49;5.30;;;1.77;;
70433;SDS011;57876;47.792;12.960;2022-12-07T00:06:18;5.43;;;2.00;;
70433;SDS011;57876;47.792;12.960;2022-12-07T00:08:43;5.43;;;1.90;;
70433;SDS011;57876;47.792;12.960;2022-12-07T00:11:13;5.87;;;1.80;;
70433;SDS011;57876;47.792;12.960;2022-12-07T00:13:42;5.65;;;2.13;;
70433;SDS011;57876;47.792;12.960;2022-12-07T00:16:11;5.63;;;1.90;;
70433;SDS011;57876;47.792;12.960;2022-12-07T00:18:37;5.60;;;2.00;;
70433;SDS011;57876;47.792;12.960;2022-12-07T00:21:03;5.77;;;2.10;;
70433;SDS011;57876;47.792;12.960;2022-12-07T00:23:38;5.90;;;1.90;;
70433;SDS011;57876;47.792;12.960;2022-12-07T00:26:07;5.45;;;1.90;;
70433;SDS011;57876;47.792;12.960;2022-12-07T00:28:34;5.25;;;1.83;;
70433;SDS011;57876;47.792;12.960;2022-12-07T00:30:59;5.73;;;2.20;;
70433;SDS011;57876;47.792;12.960;2022-12-07T00:33:25;5.47;;;1.90;;
70433;SDS011;57876;47.792;12.960;2022-12-07T00:35:54;6.00;;;1.90;;
70433;SDS011;57876;47.792;12.960;2022-12-07T00:38:20;5.37;;;1.80;;
70433;SDS011;57876;47.792;12.960;2022-12-07T00:40:44;4.90;;;1.60;;
70433;SDS011;57876;47.792;12.960;2022-12-07T00:43:18;5.47;;;1.70;;
70433;SDS011;57876;47.792;12.960;2022-12-07T00:45:42;5.03;;;1.60;;
70433;SDS011;57876;47.792;12.960;2022-12-07T00:48:07;5.80;;;2.07;;
70433;SDS011;57876;47.792;12.960;2022-12-07T00:50:31;5.33;;;1.70;;
70433;SDS011;57876;47.792;12.960;2022-12-07T00:52:55;5.20;;;1.80;;
70433;SDS011;57876;47.792;12.960;2022-12-07T00:55:20;5.03;;;1.70;;
70433;SDS011;57876;47.792;12.960;2022-12-07T00:57:44;5.03;;;1.70;;
70433;SDS011;57876;47.792;12.960;2022-12-07T01:00:08;5.07;;;1.70;;
70433;SDS011;57876;47.792;12.960;2022-12-07T01:02:33;5.17;;;1.60;;
70433;SDS011;57876;47.792;12.960;2022-12-07T01:04:57;5.40;;;1.83;;
70433;SDS011;57876;47.792;12.960;2022-12-07T01:07:21;5.20;;;1.70;;
70433;SDS011;57876;47.792;12.960;2022-12-07T01:09:46;4.53;;;1.45;;
70433;SDS011;57876;47.792;12.960;2022-12-07T01:12:10;5.07;;;1.80;;
70433;SDS011;57876;47.792;12.960;2022-12-07T01:14:35;5.20;;;1.80;;
70433;SDS011;57876;47.792;12.960;2022-12-07T01:16:59;5.50;;;1.80;;
70433;SDS011;57876;47.792;12.960;2022-12-07T01:19:24;5.20;;;1.57;;
70433;SDS011;57876;47.792;12.960;2022-12-07T01:21:48;5.10;;;1.70;;
70433;SDS011;57876;47.792;12.960;2022-12-07T01:24:12;5.20;;;1.70;;
70433;SDS011;57876;47.792;12.960;2022-12-07T01:26:37;5.57;;;1.70;;
70433;SDS011;57876;47.792;12.960;2022-12-07T01:29:02;5.32;;;1.90;;
70433;SDS011;57876;47.792;12.960;2022-12-07T01:31:27;5.10;;;1.60;;
70433;SDS011;57876;47.792;12.960;2022-12-07T01:33:53;5.60;;;1.70;;
70433;SDS011;57876;47.792;12.960;2022-12-07T01:36:20;5.03;;;1.50;;
70433;SDS011;57876;47.792;12.960;2022-12-07T01:38:46;5.28;;;1.67;;
70433;SDS011;57876;47.792;12.960;2022-12-07T01:41:12;4.43;;;1.38;;
70433;SDS011;57876;47.792;12.960;2022-12-07T01:46:36;5.30;;;1.77;;
70433;SDS011;57876;47.792;12.960;2022-12-07T01:49:01;5.53;;;1.80;;
70433;SDS011;57876;47.792;12.960;2022-12-07T01:51:29;5.10;;;1.58;;
70433;SDS011;57876;47.792;12.960;2022-12-07T01:53:56;5.00;;;1.55;;
70433;SDS011;57876;47.792;12.960;2022-12-07T01:56:23;5.23;;;1.80;;
70433;SDS011;57876;47.792;12.960;2022-12-07T01:58:51;5.15;;;1.55;;
70433;SDS011;57876;47.792;12.960;2022-12-07T02:01:16;4.88;;;1.52;;
70433;SDS011;57876;47.792;12.960;2022-12-07T02:03:42;5.00;;;1.40;;
70433;SDS011;57876;47.792;12.960;2022-12-07T02:06:09;5.13;;;1.48;;
70433;SDS011;57876;47.792;12.960;2022-12-07T02:08:36;5.40;;;1.47;;
70433;SDS011;57876;47.792;12.960;2022-12-07T02:11:00;4.80;;;1.50;;
70433;SDS011;57876;47.792;12.960;2022-12-07T02:13:27;5.17;;;1.57;;
70433;SDS011;57876;47.792;12.960;2022-12-07T02:30:03;4.50;;;1.50;;
70433;SDS011;57876;47.792;12.960;2022-12-07T02:32:38;5.00;;;1.33;;
70433;SDS011;57876;47.792;12.960;2022-12-07T02:35:20;4.40;;;1.30;;
70433;SDS011;57876;47.792;12.960;2022-12-07T02:43:06;4.90;;;1.50;;
70433;SDS011;57876;47.792;12.960;2022-12-07T02:45:43;4.30;;;1.20;;
70433;SDS011;57876;47.792;12.960;2022-12-07T02:48:09;5.32;;;1.45;;
70433;SDS011;57876;47.792;12.960;2022-12-07T02:50:35;5.05;;;1.60;;
70433;SDS011;57876;47.792;12.960;2022-12-07T02:53:00;5.10;;;1.70;;
70433;SDS011;57876;47.792;12.960;2022-12-07T02:55:26;5.07;;;1.60;;
70433;SDS011;57876;47.792;12.960;2022-12-07T02:58:38;4.57;;;1.23;;
70433;SDS011;57876;47.792;12.960;2022-12-07T03:01:03;4.75;;;1.50;;
70433;SDS011;57876;47.792;12.960;2022-12-07T03:03:38;4.47;;;1.40;;
70433;SDS011;57876;47.792;12.960;2022-12-07T03:06:10;4.70;;;1.45;;
70433;SDS011;57876;47.792;12.960;2022-12-07T03:11:35;5.10;;;1.40;;
70433;SDS011;57876;47.792;12.960;2022-12-07T03:16:58;5.07;;;1.60;;
70433;SDS011;57876;47.792;12.960;2022-12-07T03:19:29;4.93;;;1.13;;
70433;SDS011;57876;47.792;12.960;2022-12-07T03:21:57;4.85;;;1.40;;
70433;SDS011;57876;47.792;12.960;2022-12-07T03:24:36;5.27;;;1.37;;
70433;SDS011;57876;47.792;12.960;2022-12-07T03:27:05;4.55;;;1.30;;
70433;SDS011;57876;47.792;12.960;2022-12-07T03:29:38;4.82;;;1.45;;
70433;SDS011;57876;47.792;12.960;2022-12-07T03:32:14;5.22;;;1.50;;
70433;SDS011;57876;47.792;12.960;2022-12-07T03:34:50;5.00;;;1.60;;
70433;SDS011;57876;47.792;12.960;2022-12-07T03:37:26;4.60;;;1.40;;
70433;SDS011;57876;47.792;12.960;2022-12-07T03:42:30;4.47;;;1.33;;
70433;SDS011;57876;47.792;12.960;2022-12-07T03:44:56;4.95;;;1.60;;
70433;SDS011;57876;47.792;12.960;2022-12-07T03:53:11;4.68;;;1.25;;
70433;SDS011;57876;47.792;12.960;2022-12-07T03:55:42;4.63;;;1.40;;
70433;SDS011;57876;47.792;12.960;2022-12-07T03:58:11;4.88;;;1.70;;
70433;SDS011;57876;47.792;12.960;2022-12-07T04:00:38;4.70;;;1.40;;
70433;SDS011;57876;47.792;12.960;2022-12-07T04:03:04;5.00;;;1.30;;
70433;SDS011;57876;47.792;12.960;2022-12-07T04:05:28;5.03;;;1.60;;
70433;SDS011;57876;47.792;12.960;2022-12-07T04:07:53;4.97;;;1.23;;
70433;SDS011;57876;47.792;12.960;2022-12-07T04:10:17;5.17;;;1.50;;
70433;SDS011;57876;47.792;12.960;2022-12-07T04:12:42;4.78;;;1.30;;
70433;SDS011;57876;47.792;12.960;2022-12-07T04:15:06;4.70;;;1.10;;
70433;SDS011;57876;47.792;12.960;2022-12-07T04:17:31;4.20;;;1.08;;
70433;SDS011;57876;47.792;12.960;2022-12-07T04:19:56;4.87;;;1.30;;
70433;SDS011;57876;47.792;12.960;2022-12-07T04:22:20;4.00;;;1.13;;
70433;SDS011;57876;47.792;12.960;2022-12-07T04:24:45;4.90;;;1.33;;
70433;SDS011;57876;47.792;12.960;2022-12-07T04:27:09;4.80;;;1.50;;
70433;SDS011;57876;47.792;12.960;2022-12-07T04:29:34;5.03;;;1.20;;
70433;SDS011;57876;47.792;12.960;2022-12-07T04:31:58;5.00;;;1.40;;
70433;SDS011;57876;47.792;12.960;2022-12-07T04:34:22;4.33;;;1.17;;
70433;SDS011;57876;47.792;12.960;2022-12-07T04:36:47;4.60;;;1.23;;
70433;SDS011;57876;47.792;12.960;2022-12-07T04:41:45;4.78;;;1.40;;
70433;SDS011;57876;47.792;12.960;2022-12-07T04:44:09;4.70;;;1.27;;
70433;SDS011;57876;47.792;12.960;2022-12-07T04:46:38;4.97;;;1.52;;
70433;SDS011;57876;47.792;12.960;2022-12-07T04:49:02;4.87;;;1.40;;
70433;SDS011;57876;47.792;12.960;2022-12-07T04:51:28;4.60;;;1.40;;
70433;SDS011;57876;47.792;12.960;2022-12-07T04:53:53;4.55;;;1.30;;
70433;SDS011;57876;47.792;12.960;2022-12-07T04:56:18;4.60;;;1.40;;
70433;SDS011;57876;47.792;12.960;2022-12-07T04:58:43;5.00;;;1.37;;
70433;SDS011;57876;47.792;12.960;2022-12-07T05:01:09;4.38;;;1.35;;
70433;SDS011;57876;47.792;12.960;2022-12-07T05:03:33;4.30;;;1.20;;
70433;SDS011;57876;47.792;12.960;2022-12-07T05:05:59;4.50;;;1.20;;
70433;SDS011;57876;47.792;12.960;2022-12-07T05:08:23;5.00;;;1.30;;
70433;SDS011;57876;47.792;12.960;2022-12-07T05:10:48;4.40;;;1.30;;
70433;SDS011;57876;47.792;12.960;2022-12-07T05:13:13;4.45;;;1.15;;
70433;SDS011;57876;47.792;12.960;2022-12-07T05:15:37;4.50;;;1.23;;
70433;SDS011;57876;47.792;12.960;2022-12-07T05:18:01;4.80;;;1.30;;
70433;SDS011;57876;47.792;12.960;2022-12-07T05:20:27;4.75;;;1.30;;
70433;SDS011;57876;47.792;12.960;2022-12-07T05:22:51;4.80;;;1.37;;
70433;SDS011;57876;47.792;12.960;2022-12-07T05:25:16;4.53;;;1.10;;
70433;SDS011;57876;47.792;12.960;2022-12-07T05:27:40;4.60;;;1.40;;
70433;SDS011;57876;47.792;12.960;2022-12-07T05:30:05;5.07;;;1.43;;
70433;SDS011;57876;47.792;12.960;2022-12-07T05:32:29;4.65;;;1.42;;
70433;SDS011;57876;47.792;12.960;2022-12-07T05:34:54;4.30;;;1.10;;
70433;SDS011;57876;47.792;12.960;2022-12-07T05:37:18;4.93;;;1.13;;
70433;SDS011;57876;47.792;12.960;2022-12-07T05:39:43;4.40;;;1.17;;
70433;SDS011;57876;47.792;12.960;2022-12-07T05:42:09;4.60;;;1.35;;
70433;SDS011;57876;47.792;12.960;2022-12-07T05:44:41;4.78;;;1.20;;
70433;SDS011;57876;47.792;12.960;2022-12-07T05:47:07;4.27;;;1.10;;
70433;SDS011;57876;47.792;12.960;2022-12-07T05:49:32;4.13;;;1.10;;
70433;SDS011;57876;47.792;12.960;2022-12-07T05:51:56;4.57;;;1.20;;
70433;SDS011;57876;47.792;12.960;2022-12-07T05:54:20;4.63;;;1.30;;
70433;SDS011;57876;47.792;12.960;2022-12-07T05:56:45;4.60;;;1.50;;
70433;SDS011;57876;47.792;12.960;2022-12-07T05:59:09;4.27;;;1.00;;
70433;SDS011;57876;47.792;12.960;2022-12-07T06:04:18;4.78;;;1.20;;
70433;SDS011;57876;47.792;12.960;2022-12-07T06:06:44;4.47;;;1.20;;
70433;SDS011;57876;47.792;12.960;2022-12-07T06:09:08;4.13;;;1.10;;
70433;SDS011;57876;47.792;12.960;2022-12-07T06:11:33;4.40;;;1.30;;
70433;SDS011;57876;47.792;12.960;2022-12-07T06:14:16;4.40;;;1.10;;
70433;SDS011;57876;47.792;12.960;2022-12-07T06:16:40;4.40;;;1.07;;
70433;SDS011;57876;47.792;12.960;2022-12-07T06:19:05;4.57;;;1.27;;
70433;SDS011;57876;47.792;12.960;2022-12-07T06:21:29;4.67;;;1.20;;
70433;SDS011;57876;47.792;12.960;2022-12-07T06:23:54;4.53;;;1.10;;
70433;SDS011;57876;47.792;12.960;2022-12-07T06:26:18;3.92;;;1.00;;
70433;SDS011;57876;47.792;12.960;2022-12-07T06:28:43;4.70;;;1.27;;
70433;SDS011;57876;47.792;12.960;2022-12-07T06:31:07;4.30;;;1.00;;
70433;SDS011;57876;47.792;12.960;2022-12-07T06:33:32;4.18;;;1.10;;
70433;SDS011;57876;47.792;12.960;2022-12-07T06:35:56;4.43;;;1.20;;
70433;SDS011;57876;47.792;12.960;2022-12-07T06:38:20;4.33;;;1.17;;
70433;SDS011;57876;47.792;12.960;2022-12-07T06:40:45;4.63;;;1.30;;
70433;SDS011;57876;47.792;12.960;2022-12-07T06:43:10;4.20;;;1.03;;
70433;SDS011;57876;47.792;12.960;2022-12-07T06:45:34;4.30;;;1.07;;
70433;SDS011;57876;47.792;12.960;2022-12-07T06:47:59;4.27;;;1.10;;
70433;SDS011;57876;47.792;12.960;2022-12-07T06:50:23;5.33;;;1.20;;
70433;SDS011;57876;47.792;12.960;2022-12-07T06:52:47;4.70;;;1.00;;
70433;SDS011;57876;47.792;12.960;2022-12-07T06:55:12;4.93;;;1.27;;
70433;SDS011;57876;47.792;12.960;2022-12-07T06:57:36;4.27;;;1.10;;
70433;SDS011;57876;47.792;12.960;2022-12-07T07:00:00;4.87;;;1.27;;
70433;SDS011;57876;47.792;12.960;2022-12-07T07:02:25;4.72;;;1.30;;
70433;SDS011;57876;47.792;12.960;2022-12-07T07:04:50;4.50;;;1.10;;
70433;SDS011;57876;47.792;12.960;2022-12-07T07:07:14;4.83;;;1.30;;
70433;SDS011;57876;47.792;12.960;2022-12-07T07:09:38;4.82;;;1.10;;
70433;SDS011;57876;47.792;12.960;2022-12-07T07:12:03;4.27;;;1.07;;
70433;SDS011;57876;47.792;12.960;2022-12-07T07:14:27;4.73;;;1.30;;
70433;SDS011;57876;47.792;12.960;2022-12-07T07:16:52;4.40;;;1.10;;
70433;SDS011;57876;47.792;12.960;2022-12-07T07:19:16;4.28;;;1.20;;
70433;SDS011;57876;47.792;12.960;2022-12-07T07:21:41;4.20;;;1.20;;
70433;SDS011;57876;47.792;12.960;2022-12-07T07:24:05;4.43;;;1.03;;
70433;SDS011;57876;47.792;12.960;2022-12-07T07:26:30;4.47;;;1.20;;
70433;SDS011;57876;47.792;12.960;2022-12-07T07:28:54;4.80;;;1.10;;
70433;SDS011;57876;47.792;12.960;2022-12-07T07:31:18;4.83;;;1.30;;
70433;SDS011;57876;47.792;12.960;2022-12-07T07:33:43;4.20;;;1.00;;
70433;SDS011;57876;47.792;12.960;2022-12-07T07:36:10;3.92;;;1.00;;
70433;SDS011;57876;47.792;12.960;2022-12-07T07:38:34;4.20;;;1.03;;
70433;SDS011;57876;47.792;12.960;2022-12-07T07:40:59;5.00;;;1.30;;
70433;SDS011;57876;47.792;12.960;2022-12-07T07:43:23;4.35;;;1.20;;
70433;SDS011;57876;47.792;12.960;2022-12-07T07:45:47;4.47;;;1.10;;
70433;SDS011;57876;47.792;12.960;2022-12-07T07:48:12;4.40;;;1.10;;
70433;SDS011;57876;47.792;12.960;2022-12-07T07:50:36;4.60;;;1.17;;
70433;SDS011;57876;47.792;12.960;2022-12-07T07:53:01;4.73;;;1.20;;
70433;SDS011;57876;47.792;12.960;2022-12-07T07:55:25;5.03;;;1.25;;
70433;SDS011;57876;47.792;12.960;2022-12-07T07:57:49;4.67;;;1.20;;
70433;SDS011;57876;47.792;12.960;2022-12-07T08:00:14;4.13;;;1.10;;
70433;SDS011;57876;47.792;12.960;2022-12-07T08:02:39;4.20;;;1.20;;
70433;SDS011;57876;47.792;12.960;2022-12-07T08:05:05;4.50;;;1.15;;
70433;SDS011;57876;47.792;12.960;2022-12-07T08:07:30;4.70;;;1.20;;
70433;SDS011;57876;47.792;12.960;2022-12-07T08:09:54;4.35;;;1.20;;
70433;SDS011;57876;47.792;12.960;2022-12-07T08:12:19;4.47;;;1.10;;
70433;SDS011;57876;47.792;12.960;2022-12-07T08:14:43;4.67;;;1.27;;
70433;SDS011;57876;47.792;12.960;2022-12-07T08:17:08;4.20;;;1.10;;
70433;SDS011;57876;47.792;12.960;2022-12-07T08:19:32;4.50;;;1.20;;
70433;SDS011;57876;47.792;12.960;2022-12-07T08:21:57;4.30;;;1.13;;
70433;SDS011;57876;47.792;12.960;2022-12-07T08:24:21;4.50;;;1.07;;
70433;SDS011;57876;47.792;12.960;2022-12-07T08:26:47;4.80;;;1.15;;
70433;SDS011;57876;47.792;12.960;2022-12-07T08:29:11;4.80;;;1.27;;
70433;SDS011;57876;47.792;12.960;2022-12-07T08:31:35;4.50;;;1.20;;
70433;SDS011;57876;47.792;12.960;2022-12-07T08:34:00;4.57;;;1.20;;
70433;SDS011;57876;47.792;12.960;2022-12-07T08:36:24;4.57;;;1.10;;
70433;SDS011;57876;47.792;12.960;2022-12-07T08:38:49;4.30;;;1.10;;
70433;SDS011;57876;47.792;12.960;2022-12-07T08:41:14;4.30;;;1.30;;
70433;SDS011;57876;47.792;12.960;2022-12-07T08:43:39;4.40;;;1.13;;
70433;SDS011;57876;47.792;12.960;2022-12-07T08:46:11;4.30;;;1.10;;
70433;SDS011;57876;47.792;12.960;2022-12-07T08:48:43;4.88;;;1.13;;
70433;SDS011;57876;47.792;12.960;2022-12-07T08:51:12;4.65;;;1.30;;
70433;SDS011;57876;47.792;12.960;2022-12-07T08:53:37;4.33;;;1.10;;
70433;SDS011;57876;47.792;12.960;2022-12-07T08:56:02;4.20;;;1.10;;
70433;SDS011;57876;47.792;12.960;2022-12-07T08:58:28;4.20;;;1.10;;
70433;SDS011;57876;47.792;12.960;2022-12-07T09:00:52;4.17;;;1.00;;
70433;SDS011;57876;47.792;12.960;2022-12-07T09:03:16;4.10;;;1.03;;
70433;SDS011;57876;47.792;12.960;2022-12-07T09:05:41;4.70;;;1.10;;
70433;SDS011;57876;47.792;12.960;2022-12-07T09:08:05;4.10;;;1.00;;
70433;SDS011;57876;47.792;12.960;2022-12-07T09:10:30;4.43;;;0.97;;
70433;SDS011;57876;47.792;12.960;2022-12-07T09:12:55;4.80;;;1.00;;
70433;SDS011;57876;47.792;12.960;2022-12-07T09:15:19;4.63;;;1.00;;
70433;SDS011;57876;47.792;12.960;2022-12-07T09:17:43;4.50;;;1.20;;
70433;SDS011;57876;47.792;12.960;2022-12-07T09:20:08;4.20;;;0.97;;
70433;SDS011;57876;47.792;12.960;2022-12-07T09:22:33;4.30;;;1.10;;
70433;SDS011;57876;47.792;12.960;2022-12-07T09:24:58;4.15;;;1.00;;
70433;SDS011;57876;47.792;12.960;2022-12-07T09:27:22;4.13;;;0.90;;
70433;SDS011;57876;47.792;12.960;2022-12-07T09:29:47;4.10;;;1.00;;
70433;SDS011;57876;47.792;12.960;2022-12-07T09:32:11;4.93;;;1.20;;
70433;SDS011;57876;47.792;12.960;2022-12-07T09:34:36;4.20;;;1.00;;
70433;SDS011;57876;47.792;12.960;2022-12-07T09:37:00;4.13;;;1.00;;
70433;SDS011;57876;47.792;12.960;2022-12-07T09:39:26;4.30;;;1.20;;
70433;SDS011;57876;47.792;12.960;2022-12-07T09:41:51;4.50;;;1.00;;
70433;SDS011;57876;47.792;12.960;2022-12-07T09:44:23;4.45;;;1.15;;
70433;SDS011;57876;47.792;12.960;2022-12-07T09:46:49;4.13;;;1.10;;
70433;SDS011;57876;47.792;12.960;2022-12-07T09:49:16;4.30;;;1.10;;
70433;SDS011;57876;47.792;12.960;2022-12-07T09:51:43;4.00;;;0.90;;
70433;SDS011;57876;47.792;12.960;2022-12-07T09:54:08;4.30;;;0.98;;
70433;SDS011;57876;47.792;12.960;2022-12-07T09:56:37;4.50;;;1.20;;
70433;SDS011;57876;47.792;12.960;2022-12-07T09:59:01;4.33;;;1.03;;
70433;SDS011;57876;47.792;12.960;2022-12-07T10:01:28;3.92;;;1.02;;
70433;SDS011;57876;47.792;12.960;2022-12-07T10:04:09;4.00;;;0.80;;
70433;SDS011;57876;47.792;12.960;2022-12-07T10:06:38;4.10;;;1.05;;
70433;SDS011;57876;47.792;12.960;2022-12-07T10:09:08;4.07;;;1.10;;
70433;SDS011;57876;47.792;12.960;2022-12-07T10:11:57;4.30;;;1.10;;
70433;SDS011;57876;47.792;12.960;2022-12-07T10:14:30;3.85;;;0.98;;
70433;SDS011;57876;47.792;12.960;2022-12-07T10:16:57;3.87;;;0.90;;
70433;SDS011;57876;47.792;12.960;2022-12-07T10:22:00;4.00;;;0.80;;
70433;SDS011;57876;47.792;12.960;2022-12-07T10:24:41;4.10;;;0.88;;
70433;SDS011;57876;47.792;12.960;2022-12-07T10:27:20;4.00;;;0.80;;
70433;SDS011;57876;47.792;12.960;2022-12-07T10:29:54;3.97;;;1.00;;
70433;SDS011;57876;47.792;12.960;2022-12-07T10:34:43;4.05;;;0.88;;
70433;SDS011;57876;47.792;12.960;2022-12-07T10:39:43;4.03;;;0.80;;
70433;SDS011;57876;47.792;12.960;2022-12-07T10:42:20;4.15;;;1.05;;
70433;SDS011;57876;47.792;12.960;2022-12-07T10:44:44;4.00;;;0.95;;
70433;SDS011;57876;47.792;12.960;2022-12-07T10:47:21;4.32;;;1.00;;
70433;SDS011;57876;47.792;12.960;2022-12-07T10:49:51;3.80;;;0.90;;
70433;SDS011;57876;47.792;12.960;2022-12-07T10:52:20;4.05;;;1.00;;
70433;SDS011;57876;47.792;12.960;2022-12-07T10:57:37;4.13;;;1.00;;
70433;SDS011;57876;47.792;12.960;2022-12-07T11:00:17;4.25;;;1.05;;
70433;SDS011;57876;47.792;12.960;2022-12-07T11:11:21;4.15;;;0.93;;
70433;SDS011;57876;47.792;12.960;2022-12-07T11:14:35;3.70;;;0.90;;
70433;SDS011;57876;47.792;12.960;2022-12-07T11:17:26;3.87;;;0.90;;
70433;SDS011;57876;47.792;12.960;2022-12-07T11:25:00;3.72;;;0.85;;
70433;SDS011;57876;47.792;12.960;2022-12-07T11:27:46;3.88;;;0.95;;
70433;SDS011;57876;47.792;12.960;2022-12-07T11:30:21;3.77;;;0.93;;
70433;SDS011;57876;47.792;12.960;2022-12-07T11:36:01;3.53;;;0.85;;
70433;SDS011;57876;47.792;12.960;2022-12-07T11:41:03;4.20;;;1.00;;
70433;SDS011;57876;47.792;12.960;2022-12-07T11:46:29;4.10;;;0.90;;
70433;SDS011;57876;47.792;12.960;2022-12-07T11:52:10;4.03;;;1.00;;
70433;SDS011;57876;47.792;12.960;2022-12-07T11:54:42;3.70;;;0.70;;
70433;SDS011;57876;47.792;12.960;2022-12-07T11:57:12;3.85;;;0.90;;
70433;SDS011;57876;47.792;12.960;2022-12-07T11:59:57;3.85;;;0.80;;
70433;SDS011;57876;47.792;12.960;2022-12-07T12:02:37;3.40;;;0.83;;
70433;SDS011;57876;47.792;12.960;2022-12-07T12:05:13;4.28;;;1.10;;
70433;SDS011;57876;47.792;12.960;2022-12-07T12:07:40;3.72;;;0.95;;
70433;SDS011;57876;47.792;12.960;2022-12-07T12:10:18;4.28;;;0.93;;
70433;SDS011;57876;47.792;12.960;2022-12-07T12:21:17;3.78;;;0.80;;
70433;SDS011;57876;47.792;12.960;2022-12-07T12:23:53;3.63;;;0.88;;
70433;SDS011;57876;47.792;12.960;2022-12-07T12:26:23;4.10;;;1.00;;
70433;SDS011;57876;47.792;12.960;2022-12-07T12:28:58;4.18;;;1.08;;
70433;SDS011;57876;47.792;12.960;2022-12-07T12:33:53;3.88;;;0.80;;
70433;SDS011;57876;47.792;12.960;2022-12-07T12:36:20;4.10;;;0.93;;
70433;SDS011;57876;47.792;12.960;2022-12-07T12:39:29;3.75;;;0.80;;
70433;SDS011;57876;47.792;12.960;2022-12-07T12:54:14;3.55;;;0.80;;
70433;SDS011;57876;47.792;12.960;2022-12-07T12:56:43;3.70;;;0.80;;
70433;SDS011;57876;47.792;12.960;2022-12-07T12:59:28;4.10;;;0.90;;
70433;SDS011;57876;47.792;12.960;2022-12-07T13:13:03;4.07;;;1.08;;
70433;SDS011;57876;47.792;12.960;2022-12-07T13:23:35;3.97;;;0.90;;
70433;SDS011;57876;47.792;12.960;2022-12-07T13:26:03;5.70;;;1.02;;
70433;SDS011;57876;47.792;12.960;2022-12-07T13:28:36;4.10;;;1.10;;
70433;SDS011;57876;47.792;12.960;2022-12-07T13:33:35;4.10;;;0.90;;
70433;SDS011;57876;47.792;12.960;2022-12-07T13:36:00;3.90;;;0.90;;
70433;SDS011;57876;47.792;12.960;2022-12-07T13:38:28;4.50;;;1.03;;
70433;SDS011;57876;47.792;12.960;2022-12-07T13:44:22;3.83;;;0.80;;
70433;SDS011;57876;47.792;12.960;2022-12-07T13:49:29;4.05;;;0.90;;
70433;SDS011;57876;47.792;12.960;2022-12-07T13:52:06;4.07;;;0.98;;
70433;SDS011;57876;47.792;12.960;2022-12-07T13:57:24;4.00;;;1.00;;
70433;SDS011;57876;47.792;12.960;2022-12-07T13:59:50;4.28;;;1.10;;
70433;SDS011;57876;47.792;12.960;2022-12-07T14:04:48;4.07;;;1.00;;
70433;SDS011;57876;47.792;12.960;2022-12-07T14:09:52;4.10;;;0.90;;
70433;SDS011;57876;47.792;12.960;2022-12-07T14:12:18;3.90;;;1.00;;
70433;SDS011;57876;47.792;12.960;2022-12-07T14:14:46;3.97;;;0.90;;
70433;SDS011;57876;47.792;12.960;2022-12-07T14:17:14;4.28;;;1.05;;
70433;SDS011;57876;47.792;12.960;2022-12-07T14:27:36;4.10;;;0.90;;
70433;SDS011;57876;47.792;12.960;2022-12-07T14:30:02;3.93;;;0.90;;
70433;SDS011;57876;47.792;12.960;2022-12-07T14:32:28;4.07;;;1.00;;
70433;SDS011;57876;47.792;12.960;2022-12-07T14:37:27;4.50;;;1.00;;
70433;SDS011;57876;47.792;12.960;2022-12-07T14:39:52;3.80;;;0.90;;
70433;SDS011;57876;47.792;12.960;2022-12-07T14:42:17;4.32;;;0.95;;
70433;SDS011;57876;47.792;12.960;2022-12-07T14:44:41;4.30;;;1.07;;
70433;SDS011;57876;47.792;12.960;2022-12-07T14:47:08;4.60;;;1.20;;
70433;SDS011;57876;47.792;12.960;2022-12-07T14:49:35;4.70;;;1.00;;
70433;SDS011;57876;47.792;12.960;2022-12-07T14:52:00;4.30;;;1.00;;
70433;SDS011;57876;47.792;12.960;2022-12-07T14:54:24;4.23;;;1.10;;
70433;SDS011;57876;47.792;12.960;2022-12-07T14:56:52;4.47;;;1.17;;
70433;SDS011;57876;47.792;12.960;2022-12-07T14:59:17;4.65;;;1.00;;
70433;SDS011;57876;47.792;12.960;2022-12-07T15:01:42;3.87;;;0.93;;
70433;SDS011;57876;47.792;12.960;2022-12-07T15:04:07;4.07;;;1.08;;
70433;SDS011;57876;47.792;12.960;2022-12-07T15:06:31;4.03;;;1.07;;
70433;SDS011;57876;47.792;12.960;2022-12-07T15:08:56;4.20;;;1.00;;
70433;SDS011;57876;47.792;12.960;2022-12-07T15:11:20;4.10;;;0.93;;
70433;SDS011;57876;47.792;12.960;2022-12-07T15:13:44;4.18;;;1.10;;
70433;SDS011;57876;47.792;12.960;2022-12-07T15:16:27;4.00;;;1.03;;
70433;SDS011;57876;47.792;12.960;2022-12-07T15:18:52;4.07;;;1.15;;
70433;SDS011;57876;47.792;12.960;2022-12-07T15:21:16;4.10;;;1.10;;
70433;SDS011;57876;47.792;12.960;2022-12-07T15:23:41;4.20;;;1.00;;
70433;SDS011;57876;47.792;12.960;2022-12-07T15:26:06;4.40;;;1.00;;
70433;SDS011;57876;47.792;12.960;2022-12-07T15:28:31;3.95;;;0.90;;
70433;SDS011;57876;47.792;12.960;2022-12-07T15:30:56;4.10;;;1.10;;
70433;SDS011;57876;47.792;12.960;2022-12-07T15:33:20;4.10;;;1.00;;
70433;SDS011;57876;47.792;12.960;2022-12-07T15:35:45;4.40;;;1.10;;
70433;SDS011;57876;47.792;12.960;2022-12-07T15:38:09;4.65;;;1.02;;
70433;SDS011;57876;47.792;12.960;2022-12-07T15:40:35;4.20;;;1.38;;
70433;SDS011;57876;47.792;12.960;2022-12-07T15:42:59;4.45;;;1.15;;
70433;SDS011;57876;47.792;12.960;2022-12-07T15:45:24;4.43;;;1.20;;
70433;SDS011;57876;47.792;12.960;2022-12-07T15:47:48;4.70;;;1.13;;
70433;SDS011;57876;47.792;12.960;2022-12-07T15:50:14;4.87;;;1.00;;
70433;SDS011;57876;47.792;12.960;2022-12-07T15:52:40;4.28;;;0.98;;
70433;SDS011;57876;47.792;12.960;2022-12-07T15:55:05;4.50;;;1.20;;
70433;SDS011;57876;47.792;12.960;2022-12-07T15:57:30;5.15;;;1.00;;
70433;SDS011;57876;47.792;12.960;2022-12-07T15:59:55;4.30;;;1.20;;
70433;SDS011;57876;47.792;12.960;2022-12-07T16:02:19;4.40;;;1.20;;
70433;SDS011;57876;47.792;12.960;2022-12-07T16:04:44;4.00;;;0.90;;
70433;SDS011;57876;47.792;12.960;2022-12-07T16:07:09;4.18;;;0.93;;
70433;SDS011;57876;47.792;12.960;2022-12-07T16:09:35;4.15;;;1.10;;
70433;SDS011;57876;47.792;12.960;2022-12-07T16:11:59;4.20;;;1.00;;
70433;SDS011;57876;47.792;12.960;2022-12-07T16:14:24;4.17;;;0.93;;
70433;SDS011;57876;47.792;12.960;2022-12-07T16:16:48;4.43;;;1.20;;
70433;SDS011;57876;47.792;12.960;2022-12-07T16:19:13;4.50;;;1.10;;
70433;SDS011;57876;47.792;12.960;2022-12-07T16:21:38;4.50;;;1.43;;
70433;SDS011;57876;47.792;12.960;2022-12-07T16:24:03;4.40;;;1.10;;
70433;SDS011;57876;47.792;12.960;2022-12-07T16:26:29;4.20;;;1.10;;
70433;SDS011;57876;47.792;12.960;2022-12-07T16:28:53;4.30;;;1.20;;
70433;SDS011;57876;47.792;12.960;2022-12-07T16:31:20;4.70;;;1.33;;
70433;SDS011;57876;47.792;12.960;2022-12-07T16:33:47;4.13;;;1.23;;
70433;SDS011;57876;47.792;12.960;2022-12-07T16:36:13;4.30;;;1.00;;
70433;SDS011;57876;47.792;12.960;2022-12-07T16:38:40;4.28;;;1.10;;
70433;SDS011;57876;47.792;12.960;2022-12-07T16:41:05;4.40;;;1.20;;
70433;SDS011;57876;47.792;12.960;2022-12-07T16:43:30;4.47;;;1.27;;
70433;SDS011;57876;47.792;12.960;2022-12-07T16:45:55;4.63;;;1.30;;
70433;SDS011;57876;47.792;12.960;2022-12-07T16:48:19;4.90;;;1.40;;
70433;SDS011;57876;47.792;12.960;2022-12-07T16:50:43;4.38;;;1.23;;
70433;SDS011;57876;47.792;12.960;2022-12-07T16:53:09;5.00;;;1.30;;
70433;SDS011;57876;47.792;12.960;2022-12-07T16:55:52;4.43;;;1.23;;
70433;SDS011;57876;47.792;12.960;2022-12-07T16:58:17;4.72;;;1.27;;
70433;SDS011;57876;47.792;12.960;2022-12-07T17:00:42;4.95;;;1.25;;